createdAt,value
2018-08-06T00:00:22.283Z,101912.95
2018-08-06T00:02:51.135Z,101916.52
2018-08-06T00:05:19.990Z,101919.81
2018-08-06T00:07:49.195Z,101928.02
2018-08-06T00:10:20.679Z,101927.09
2018-08-06T00:12:49.443Z,101927.52
2018-08-06T00:15:18.555Z,101922.38
2018-08-06T00:17:47.646Z,101916.19
2018-08-06T00:20:17.043Z,101910.63
2018-08-06T00:22:46.347Z,101915.82
2018-08-06T00:25:16.133Z,101916.03
2018-08-06T00:27:45.311Z,101917.91
2018-08-06T00:30:16.031Z,101921.02
2018-08-06T00:32:45.752Z,101918.03
2018-08-06T00:35:15.019Z,101913.67
2018-08-06T00:37:44.167Z,101909.02
2018-08-06T00:40:15.113Z,101906.81
2018-08-06T00:42:44.624Z,101910.55
2018-08-06T00:45:15.688Z,101911.37
2018-08-06T00:47:44.870Z,101913.33
2018-08-06T00:50:13.799Z,101907.38
2018-08-06T00:52:42.919Z,101909.23
2018-08-06T00:55:16.864Z,101907.38
2018-08-06T00:57:45.702Z,101907.17
2018-08-06T01:00:18.116Z,101904.68
2018-08-06T01:02:47.822Z,101894.37
2018-08-06T01:05:17.498Z,101895.42
2018-08-06T01:07:46.832Z,101891.39
2018-08-06T01:10:16.814Z,101893.17
2018-08-06T01:12:45.513Z,101892.38
2018-08-06T01:15:17.137Z,101891.30
2018-08-06T01:17:46.247Z,101883.49
2018-08-06T01:20:15.492Z,101881.08
2018-08-06T01:22:44.968Z,101883.11
2018-08-06T01:25:14.454Z,101883.27
2018-08-06T01:27:43.441Z,101878.91
2018-08-06T01:30:15.054Z,101881.39
2018-08-06T01:32:43.969Z,101881.97
2018-08-06T01:35:13.059Z,101877.39
2018-08-06T01:37:41.831Z,101876.65
2018-08-06T01:40:18.266Z,101871.83
2018-08-06T01:42:47.189Z,101871.91
2018-08-06T01:45:17.060Z,101863.52
2018-08-06T01:47:46.185Z,101866.59
2018-08-06T01:50:15.890Z,101864.97
2018-08-06T01:52:45.129Z,101865.54
2018-08-06T01:55:14.042Z,101865.87
2018-08-06T01:57:43.010Z,101864.66
2018-08-06T02:00:15.294Z,101859.50
2018-08-06T02:02:44.356Z,101860.70
2018-08-06T02:05:13.559Z,101851.98
2018-08-06T02:07:42.564Z,101854.72
2018-08-06T02:10:13.760Z,101857.79
2018-08-06T02:12:43.383Z,101846.63
2018-08-06T02:15:12.679Z,101851.67
2018-08-06T02:17:41.696Z,101842.31
2018-08-06T02:20:13.070Z,101838.76
2018-08-06T02:22:42.165Z,101835.06
2018-08-06T02:25:11.727Z,101828.66
2018-08-06T02:27:40.954Z,101825.09
2018-08-06T02:30:15.012Z,101824.55
2018-08-06T02:32:43.708Z,101817.46
2018-08-06T02:35:14.007Z,101814.73
2018-08-06T02:37:43.170Z,101813.91
2018-08-06T02:40:14.083Z,101811.09
2018-08-06T02:42:42.825Z,101801.80
2018-08-06T02:45:12.060Z,101797.16
2018-08-06T02:47:41.042Z,101795.21
2018-08-06T02:50:11.115Z,101801.48
2018-08-06T02:52:41.918Z,101798.99
2018-08-06T02:55:12.969Z,101797.38
2018-08-06T02:57:42.011Z,101793.05
2018-08-06T03:00:14.081Z,101787.62
2018-08-06T03:02:44.189Z,101795.51
2018-08-06T03:05:15.128Z,101788.38
2018-08-06T03:07:44.738Z,101785.11
2018-08-06T03:10:13.863Z,101780.78
2018-08-06T03:12:43.980Z,101778.05
2018-08-06T03:15:13.219Z,101776.91
2018-08-06T03:17:43.230Z,101774.74
2018-08-06T03:20:13.437Z,101778.59
2018-08-06T03:22:42.221Z,101775.93
2018-08-06T03:25:12.914Z,101782.84
2018-08-06T03:27:42.116Z,101775.86
2018-08-06T03:30:13.439Z,101773.52
2018-08-06T03:32:42.419Z,101771.98
2018-08-06T03:35:12.019Z,101775.36
2018-08-06T03:37:41.084Z,101777.02
2018-08-06T03:40:10.765Z,101775.98
2018-08-06T03:42:40.345Z,101767.05
2018-08-06T03:45:10.655Z,101767.38
2018-08-06T03:47:40.345Z,101763.34
2018-08-06T03:50:10.404Z,101761.73
2018-08-06T03:52:39.626Z,101753.85
2018-08-06T03:55:10.092Z,101758.20
2018-08-06T03:57:39.311Z,101756.91
2018-08-06T04:00:10.970Z,101753.75
2018-08-06T04:02:40.334Z,101754.39
2018-08-06T04:05:11.208Z,101744.56
2018-08-06T04:07:40.697Z,101747.91
2018-08-06T04:10:17.449Z,101744.93
2018-08-06T04:12:46.623Z,101741.91
2018-08-06T04:15:15.450Z,101740.76
2018-08-06T04:17:44.838Z,101733.92
2018-08-06T04:20:14.339Z,101726.80
2018-08-06T04:22:43.782Z,101727.52
2018-08-06T04:25:12.611Z,101729.61
2018-08-06T04:27:41.879Z,101722.95
2018-08-06T04:30:13.288Z,101724.79
2018-08-06T04:32:44.211Z,101727.95
2018-08-06T04:35:13.242Z,101727.88
2018-08-06T04:37:43.291Z,101726.44
2018-08-06T04:40:13.113Z,101730.72
2018-08-06T04:42:42.872Z,101727.41
2018-08-06T04:45:12.093Z,101720.82
2018-08-06T04:47:42.072Z,101725.39
2018-08-06T04:50:12.936Z,101725.89
2018-08-06T04:52:41.910Z,101728.70
2018-08-06T04:55:12.679Z,101732.39
2018-08-06T04:57:42.204Z,101727.34
2018-08-06T05:00:13.690Z,101723.42
2018-08-06T05:02:43.300Z,101724.45
2018-08-06T05:05:12.251Z,101730.02
2018-08-06T05:07:41.377Z,101727.46
2018-08-06T05:10:10.459Z,101725.47
2018-08-06T05:12:39.232Z,101725.61
2018-08-06T05:15:08.274Z,101729.39
2018-08-06T05:17:37.063Z,101724.01
2018-08-06T05:20:06.367Z,101731.64
2018-08-06T05:22:35.125Z,101722.80
2018-08-06T05:25:04.262Z,101722.40
2018-08-06T05:27:33.416Z,101721.41
2018-08-06T05:30:02.813Z,101725.61
2018-08-06T05:32:32.206Z,101723.74
2018-08-06T05:35:01.177Z,101724.38
2018-08-06T05:37:29.978Z,101724.37
2018-08-06T05:39:59.678Z,101724.33
2018-08-06T05:42:28.862Z,101723.75
2018-08-06T05:44:57.652Z,101722.04
2018-08-06T05:47:26.419Z,101730.24
2018-08-06T05:49:55.551Z,101726.03
2018-08-06T05:52:24.892Z,101725.92
2018-08-06T05:54:53.894Z,101724.16
2018-08-06T05:57:23.345Z,101727.81
2018-08-06T05:59:52.149Z,101720.83
2018-08-06T06:02:20.936Z,101721.61
2018-08-06T06:04:49.680Z,101717.02
2018-08-06T06:07:18.399Z,101721.45
2018-08-06T06:09:47.491Z,101723.73
2018-08-06T06:12:16.197Z,101721.30
2018-08-06T06:14:51.555Z,101712.69
2018-08-06T06:17:20.291Z,101719.52
2018-08-06T06:19:49.608Z,101717.95
2018-08-06T06:22:18.422Z,101708.88
2018-08-06T06:24:47.206Z,101709.45
2018-08-06T06:27:15.969Z,101702.14
2018-08-06T06:29:45.013Z,101707.17
2018-08-06T06:32:14.044Z,101708.32
2018-08-06T06:34:42.827Z,101709.23
2018-08-06T06:37:11.598Z,101713.67
2018-08-06T06:39:41.114Z,101710.88
2018-08-06T06:42:10.179Z,101706.04
2018-08-06T06:44:38.978Z,101705.79
2018-08-06T06:47:07.690Z,101698.49
2018-08-06T06:49:36.693Z,101693.75
2018-08-06T06:52:05.410Z,101693.73
2018-08-06T06:54:34.517Z,101699.16
2018-08-06T06:57:03.224Z,101695.16
2018-08-06T06:59:32.018Z,101697.25
2018-08-06T07:02:01.046Z,101698.42
2018-08-06T07:04:29.986Z,101697.66
2018-08-06T07:06:58.796Z,101690.86
2018-08-06T07:09:28.091Z,101689.94
2018-08-06T07:11:56.793Z,101688.15
2018-08-06T07:14:25.628Z,101697.45
2018-08-06T07:16:54.575Z,101699.69
2018-08-06T07:19:23.585Z,101700.41
2018-08-06T07:21:52.591Z,101698.74
2018-08-06T07:24:21.378Z,101694.27
2018-08-06T07:26:50.134Z,101688.45
2018-08-06T07:29:19.170Z,101690.09
2018-08-06T07:31:48.224Z,101681.81
2018-08-06T07:34:18.185Z,101676.39
2018-08-06T07:36:47.291Z,101676.75
2018-08-06T07:39:16.212Z,101673.03
2018-08-06T07:41:44.958Z,101668.55
2018-08-06T07:44:13.904Z,101659.52
2018-08-06T07:46:42.629Z,101666.20
2018-08-06T07:49:11.632Z,101666.77
2018-08-06T07:51:40.554Z,101670.52
2018-08-06T07:54:09.285Z,101669.62
2018-08-06T07:56:38.009Z,101668.08
2018-08-06T07:59:07.270Z,101663.20
2018-08-06T08:01:36.755Z,101662.16
2018-08-06T08:04:05.467Z,101658.36
2018-08-06T08:06:34.195Z,101660.79
2018-08-06T08:09:03.386Z,101656.23
2018-08-06T08:11:32.106Z,101641.06
2018-08-06T08:14:01.180Z,101637.33
2018-08-06T08:16:29.937Z,101636.37
2018-08-06T08:18:58.900Z,101640.78
2018-08-06T08:21:27.671Z,101636.66
2018-08-06T08:23:56.361Z,101637.16
2018-08-06T08:26:25.392Z,101635.47
2018-08-06T08:28:54.408Z,101632.41
2018-08-06T08:31:23.333Z,101624.56
2018-08-06T08:33:52.209Z,101626.59
2018-08-06T08:36:21.542Z,101626.07
2018-08-06T08:38:50.968Z,101620.55
2018-08-06T08:41:19.690Z,101616.00
2018-08-06T08:43:48.466Z,101611.06
2018-08-06T08:46:17.651Z,101614.25
2018-08-06T08:48:46.711Z,101602.94
2018-08-06T08:51:15.438Z,101597.36
2018-08-06T08:53:44.188Z,101600.36
2018-08-06T08:56:13.211Z,101599.96
2018-08-06T08:58:41.975Z,101589.22
2018-08-06T09:01:10.898Z,101594.05
2018-08-06T09:03:39.613Z,101586.08
2018-08-06T09:06:15.243Z,101578.70
2018-08-06T09:08:43.989Z,101580.84
2018-08-06T09:11:12.750Z,101583.84
2018-08-06T09:13:41.794Z,101574.25
2018-08-06T09:16:11.139Z,101575.55
2018-08-06T09:18:40.074Z,101582.08
2018-08-06T09:21:09.573Z,101571.97
2018-08-06T09:23:38.644Z,101582.84
2018-08-06T09:26:07.704Z,101570.62
2018-08-06T09:28:36.400Z,101577.75
2018-08-06T09:31:05.167Z,101578.87
2018-08-06T09:33:34.767Z,101579.17
2018-08-06T09:36:03.491Z,101575.25
2018-08-06T09:38:32.224Z,101577.02
2018-08-06T09:41:01.230Z,101573.94
2018-08-06T09:43:29.995Z,101567.51
2018-08-06T09:45:59.421Z,101564.76
2018-08-06T09:48:28.216Z,101552.31
2018-08-06T09:50:57.298Z,101555.50
2018-08-06T09:53:26.389Z,101556.15
2018-08-06T09:55:55.171Z,101548.70
2018-08-06T09:58:24.581Z,101543.75
2018-08-06T10:01:58.528Z,101540.25
2018-08-06T10:04:28.336Z,101535.57
2018-08-06T10:06:57.426Z,101537.06
2018-08-06T10:09:26.183Z,101528.36
2018-08-06T10:11:54.993Z,101530.70
2018-08-06T10:14:23.715Z,101528.97
2018-08-06T10:16:52.520Z,101524.95
2018-08-06T10:19:21.288Z,101522.83
2018-08-06T10:21:50.000Z,101524.28
2018-08-06T10:24:19.114Z,101514.17
2018-08-06T10:26:48.116Z,101516.91
2018-08-06T10:29:16.842Z,101506.53
2018-08-06T10:31:45.708Z,101500.84
2018-08-06T10:34:14.418Z,101497.92
2018-08-06T10:36:43.129Z,101494.10
2018-08-06T10:39:12.472Z,101494.82
2018-08-06T10:41:41.506Z,101485.76
2018-08-06T10:44:10.234Z,101490.23
2018-08-06T10:46:39.590Z,101479.45
2018-08-06T10:49:08.311Z,101475.47
2018-08-06T10:51:37.021Z,101481.43
2018-08-06T10:54:06.024Z,101476.80
2018-08-06T10:56:34.764Z,101476.63
2018-08-06T10:59:03.468Z,101469.44
2018-08-06T11:01:32.216Z,101456.36
2018-08-06T11:04:00.958Z,101457.55
2018-08-06T11:06:30.285Z,101450.09
2018-08-06T11:08:58.974Z,101455.94
2018-08-06T11:11:28.352Z,101445.19
2018-08-06T11:13:57.084Z,101446.17
2018-08-06T11:16:25.783Z,101440.48
2018-08-06T11:18:54.994Z,101429.05
2018-08-06T11:21:23.943Z,101427.61
2018-08-06T11:23:52.679Z,101423.30
2018-08-06T11:26:21.622Z,101421.02
2018-08-06T11:28:50.334Z,101422.55
2018-08-06T11:31:19.106Z,101418.91
2018-08-06T11:33:47.826Z,101420.97
2018-08-06T11:36:16.572Z,101408.06
2018-08-06T11:38:45.279Z,101407.02
2018-08-06T11:41:14.014Z,101398.89
2018-08-06T11:43:43.065Z,101403.83
2018-08-06T11:46:11.802Z,101407.67
2018-08-06T11:48:40.523Z,101400.72
2018-08-06T11:51:09.285Z,101399.28
2018-08-06T11:53:40.857Z,101394.45
2018-08-06T11:56:09.663Z,101391.49
2018-08-06T11:58:38.950Z,101392.11
2018-08-06T12:01:08.274Z,101384.56
2018-08-06T12:03:37.468Z,101388.20
2018-08-06T12:06:06.223Z,101388.97
2018-08-06T12:08:35.331Z,101378.42
2018-08-06T12:11:04.090Z,101384.90
2018-08-06T12:13:33.174Z,101383.59
2018-08-06T12:16:02.278Z,101376.98
2018-08-06T12:18:31.295Z,101367.80
2018-08-06T12:21:00.929Z,101364.95
2018-08-06T12:23:29.604Z,101367.14
2018-08-06T12:25:58.704Z,101361.00
2018-08-06T12:28:27.433Z,101359.22
2018-08-06T12:30:56.449Z,101355.50
2018-08-06T12:33:25.234Z,101349.57
2018-08-06T12:35:54.197Z,101353.98
2018-08-06T12:38:23.200Z,101348.20
2018-08-06T12:40:52.266Z,101350.31
2018-08-06T12:43:21.003Z,101348.75
2018-08-06T12:45:49.742Z,101342.47
2018-08-06T12:48:18.508Z,101334.94
2018-08-06T12:50:47.322Z,101324.95
2018-08-06T12:53:16.338Z,101326.41
2018-08-06T12:55:45.117Z,101326.09
2018-08-06T12:58:14.270Z,101321.87
2018-08-06T13:00:43.010Z,101314.08
2018-08-06T13:03:11.816Z,101309.70
2018-08-06T13:05:40.816Z,101306.33
2018-08-06T13:08:09.606Z,101310.80
2018-08-06T13:10:38.361Z,101301.25
2018-08-06T13:13:07.144Z,101291.33
2018-08-06T13:15:35.875Z,101294.01
2018-08-06T13:18:05.202Z,101300.92
2018-08-06T13:20:34.232Z,101293.23
2018-08-06T13:23:03.367Z,101293.17
2018-08-06T13:25:32.180Z,101287.46
2018-08-06T13:28:01.580Z,101283.91
2018-08-06T13:30:30.319Z,101285.38
2018-08-06T13:32:59.058Z,101285.66
2018-08-06T13:35:28.178Z,101290.22
2018-08-06T13:37:57.170Z,101282.11
2018-08-06T13:40:25.919Z,101280.55
2018-08-06T13:42:55.346Z,101284.86
2018-08-06T13:45:24.119Z,101272.45
2018-08-06T13:47:53.187Z,101264.37
2018-08-06T13:50:22.344Z,101267.55
2018-08-06T13:52:51.537Z,101263.07
2018-08-06T13:55:20.323Z,101255.49
2018-08-06T13:57:49.404Z,101267.05
2018-08-06T14:00:19.705Z,101258.55
2018-08-06T14:02:48.924Z,101249.17
2018-08-06T14:05:18.520Z,101248.32
2018-08-06T14:07:48.789Z,101243.26
2018-08-06T14:10:18.150Z,101241.66
2018-08-06T14:12:46.944Z,101238.56
2018-08-06T14:15:18.998Z,101239.25
2018-08-06T14:17:48.039Z,101231.80
2018-08-06T14:20:18.419Z,101233.50
2018-08-06T14:22:47.208Z,101231.98
2018-08-06T14:25:15.960Z,101218.45
2018-08-06T14:27:44.729Z,101225.02
2018-08-06T14:30:15.198Z,101227.70
2018-08-06T14:32:44.704Z,101229.69
2018-08-06T14:35:14.367Z,101216.94
2018-08-06T14:37:43.478Z,101211.25
2018-08-06T14:40:15.432Z,101209.14
2018-08-06T14:42:45.356Z,101211.84
2018-08-06T14:45:14.101Z,101215.31
2018-08-06T14:47:42.858Z,101208.06
2018-08-06T14:50:13.452Z,101202.92
2018-08-06T14:52:42.251Z,101204.47
2018-08-06T14:55:11.388Z,101202.42
2018-08-06T14:57:41.435Z,101201.88
2018-08-06T15:00:16.812Z,101198.45
2018-08-06T15:02:46.670Z,101195.10
2018-08-06T15:05:16.461Z,101196.48
2018-08-06T15:07:45.837Z,101192.87
2018-08-06T15:10:15.140Z,101193.45
2018-08-06T15:12:45.259Z,101189.92
2018-08-06T15:15:14.979Z,101182.35
2018-08-06T15:17:45.025Z,101188.88
2018-08-06T15:20:18.890Z,101185.80
2018-08-06T15:22:47.857Z,101181.82
2018-08-06T15:25:21.787Z,101174.75
2018-08-06T15:27:51.551Z,101179.26
2018-08-06T15:30:20.940Z,101172.65
2018-08-06T15:32:49.692Z,101170.61
2018-08-06T15:35:18.427Z,101167.94
2018-08-06T15:37:47.151Z,101170.62
2018-08-06T15:40:19.212Z,101165.06
2018-08-06T15:42:47.963Z,101165.78
2018-08-06T15:45:16.666Z,101164.84
2018-08-06T15:47:46.542Z,101161.92
2018-08-06T15:50:17.741Z,101159.86
2018-08-06T15:52:46.793Z,101151.99
2018-08-06T15:55:15.797Z,101157.03
2018-08-06T15:57:44.620Z,101151.14
2018-08-06T16:00:16.269Z,101152.63
2018-08-06T16:02:45.930Z,101146.85
2018-08-06T16:05:15.168Z,101147.52
2018-08-06T16:07:44.022Z,101136.70
2018-08-06T16:10:13.413Z,101137.14
2018-08-06T16:12:42.586Z,101137.16
2018-08-06T16:15:13.106Z,101139.45
2018-08-06T16:17:42.613Z,101136.20
2018-08-06T16:20:13.352Z,101138.24
2018-08-06T16:22:42.610Z,101129.72
2018-08-06T16:25:11.944Z,101135.81
2018-08-06T16:27:40.936Z,101131.70
2018-08-06T16:30:12.471Z,101124.47
2018-08-06T16:32:41.224Z,101123.62
2018-08-06T16:35:10.196Z,101122.05
2018-08-06T16:37:38.949Z,101126.09
2018-08-06T16:40:08.656Z,101122.05
2018-08-06T16:42:37.674Z,101118.73
2018-08-06T16:45:07.486Z,101121.19
2018-08-06T16:47:37.064Z,101116.52
2018-08-06T16:50:06.533Z,101111.00
2018-08-06T16:52:35.368Z,101107.73
2018-08-06T16:55:04.823Z,101109.53
2018-08-06T16:57:33.944Z,101099.48
2018-08-06T17:00:02.776Z,101104.17
2018-08-06T17:02:31.792Z,101100.08
2018-08-06T17:05:00.782Z,101097.48
2018-08-06T17:07:29.545Z,101095.33
2018-08-06T17:09:58.609Z,101095.38
2018-08-06T17:12:27.344Z,101091.34
2018-08-06T17:14:56.077Z,101092.91
2018-08-06T17:17:24.870Z,101096.17
2018-08-06T17:19:54.100Z,101075.02
2018-08-06T17:22:22.927Z,101088.13
2018-08-06T17:24:51.690Z,101081.61
2018-08-06T17:27:20.761Z,101079.05
2018-08-06T17:29:49.620Z,101072.47
2018-08-06T17:32:18.324Z,101077.78
2018-08-06T17:34:47.112Z,101074.98
2018-08-06T17:37:16.106Z,101073.95
2018-08-06T17:39:45.616Z,101073.63
2018-08-06T17:42:14.378Z,101067.96
2018-08-06T17:44:43.480Z,101070.36
2018-08-06T17:47:12.551Z,101066.63
2018-08-06T17:49:41.647Z,101068.71
2018-08-06T17:52:10.759Z,101063.86
2018-08-06T17:54:39.480Z,101067.00
2018-08-06T17:57:08.241Z,101063.72
2018-08-06T17:59:37.238Z,101063.02
2018-08-06T18:02:06.465Z,101061.48
2018-08-06T18:04:35.226Z,101065.56
2018-08-06T18:07:05.137Z,101063.99
2018-08-06T18:09:33.968Z,101061.58
2018-08-06T18:12:03.171Z,101064.58
2018-08-06T18:14:31.866Z,101057.59
2018-08-06T18:17:01.118Z,101064.37
2018-08-06T18:19:29.897Z,101056.25
2018-08-06T18:21:58.751Z,101058.14
2018-08-06T18:24:27.589Z,101054.75
2018-08-06T18:26:59.274Z,101059.28
2018-08-06T18:29:28.204Z,101063.95
2018-08-06T18:31:57.375Z,101067.65
2018-08-06T18:34:26.366Z,101058.64
2018-08-06T18:36:55.750Z,101059.55
2018-08-06T18:39:24.523Z,101059.52
2018-08-06T18:41:53.658Z,101060.78
2018-08-06T18:44:22.687Z,101064.41
2018-08-06T18:46:52.669Z,101061.91
2018-08-06T18:49:21.531Z,101061.40
2018-08-06T18:51:51.393Z,101061.40
2018-08-06T18:54:20.694Z,101057.59
2018-08-06T18:56:49.401Z,101050.02
2018-08-06T18:59:18.200Z,101055.35
2018-08-06T19:01:47.555Z,101055.39
2018-08-06T19:04:16.500Z,101055.88
2018-08-06T19:06:45.255Z,101054.37
2018-08-06T19:09:16.717Z,101056.20
2018-08-06T19:11:46.181Z,101052.35
2018-08-06T19:14:20.805Z,101053.83
2018-08-06T19:16:50.939Z,101061.66
2018-08-06T19:19:27.609Z,101062.84
2018-08-06T19:21:57.778Z,101062.19
2018-08-06T19:24:31.785Z,101056.76
2018-08-06T19:27:00.426Z,101063.23
2018-08-06T19:29:29.176Z,101069.34
2018-08-06T19:31:57.919Z,101073.03
2018-08-06T19:34:26.997Z,101071.15
2018-08-06T19:37:01.407Z,101070.45
2018-08-06T19:39:30.136Z,101073.62
2018-08-06T19:41:59.086Z,101075.20
2018-08-06T19:44:28.304Z,101080.86
2018-08-06T19:46:57.637Z,101077.42
2018-08-06T19:49:31.438Z,101082.47
2018-08-06T19:52:00.239Z,101079.20
2018-08-06T19:54:29.355Z,101086.75
2018-08-06T19:56:58.180Z,101075.22
2018-08-06T19:59:27.139Z,101085.88
2018-08-06T20:01:55.895Z,101090.23
2018-08-06T20:04:24.712Z,101088.28
2018-08-06T20:06:53.513Z,101083.92
2018-08-06T20:09:22.451Z,101086.60
2018-08-06T20:11:51.563Z,101085.78
2018-08-06T20:14:20.873Z,101085.55
2018-08-06T20:16:50.192Z,101090.30
2018-08-06T20:19:18.945Z,101089.57
2018-08-06T20:21:48.195Z,101088.68
2018-08-06T20:24:17.075Z,101093.42
2018-08-06T20:26:45.872Z,101090.52
2018-08-06T20:29:14.625Z,101093.55
2018-08-06T20:31:43.397Z,101095.38
2018-08-06T20:34:12.175Z,101101.09
2018-08-06T20:36:41.201Z,101095.86
2018-08-06T20:39:10.895Z,101095.37
2018-08-06T20:41:39.670Z,101089.88
2018-08-06T20:44:08.456Z,101085.95
2018-08-06T20:46:37.191Z,101092.81
2018-08-06T20:49:06.475Z,101085.33
2018-08-06T20:51:35.283Z,101097.66
2018-08-06T20:54:04.533Z,101091.54
2018-08-06T20:56:33.258Z,101086.59
2018-08-06T20:59:02.284Z,101089.42
2018-08-06T21:01:31.292Z,101086.09
2018-08-06T21:04:00.031Z,101086.90
2018-08-06T21:06:30.362Z,101088.91
2018-08-06T21:08:59.431Z,101088.53
2018-08-06T21:11:28.247Z,101082.57
2018-08-06T21:13:57.410Z,101078.64
2018-08-06T21:16:26.450Z,101083.79
2018-08-06T21:18:55.805Z,101084.39
2018-08-06T21:21:24.580Z,101081.84
2018-08-06T21:23:53.495Z,101085.42
2018-08-06T21:26:22.218Z,101081.84
2018-08-06T21:28:51.461Z,101079.87
2018-08-06T21:31:25.497Z,101080.29
2018-08-06T21:33:54.703Z,101081.27
2018-08-06T21:36:23.749Z,101078.11
2018-08-06T21:38:52.887Z,101071.77
2018-08-06T21:41:21.834Z,101078.06
2018-08-06T21:43:50.924Z,101074.71
2018-08-06T21:46:19.983Z,101069.14
2018-08-06T21:48:49.277Z,101068.75
2018-08-06T21:51:18.257Z,101061.00
2018-08-06T21:53:46.995Z,101065.17
2018-08-06T21:56:16.246Z,101067.72
2018-08-06T21:58:45.558Z,101065.72
2018-08-06T22:01:14.528Z,101063.94
2018-08-06T22:03:43.839Z,101064.73
2018-08-06T22:06:12.659Z,101062.75
2018-08-06T22:08:42.714Z,101059.12
2018-08-06T22:11:11.882Z,101064.25
2018-08-06T22:13:41.081Z,101065.02
2018-08-06T22:16:10.192Z,101068.95
2018-08-06T22:18:39.372Z,101066.34
2018-08-06T22:21:08.323Z,101068.52
2018-08-06T22:23:37.061Z,101064.34
2018-08-06T22:26:06.525Z,101068.08
2018-08-06T22:28:35.385Z,101066.48
2018-08-06T22:31:04.347Z,101063.12
2018-08-06T22:33:33.372Z,101067.63
2018-08-06T22:36:02.310Z,101064.27
2018-08-06T22:38:31.485Z,101060.27
2018-08-06T22:41:00.956Z,101066.20
2018-08-06T22:43:30.054Z,101061.84
2018-08-06T22:45:59.496Z,101056.84
2018-08-06T22:48:28.955Z,101058.80
2018-08-06T22:50:57.831Z,101062.72
2018-08-06T22:53:27.363Z,101064.28
2018-08-06T22:56:04.578Z,101059.53
2018-08-06T22:58:33.894Z,101052.40
2018-08-06T23:01:02.724Z,101054.39
2018-08-06T23:03:31.862Z,101051.38
2018-08-06T23:06:00.950Z,101048.97
2018-08-06T23:08:29.919Z,101048.34
2018-08-06T23:10:59.103Z,101042.38
2018-08-06T23:13:28.261Z,101037.59
2018-08-06T23:15:57.302Z,101033.02
2018-08-06T23:18:26.105Z,101038.48
2018-08-06T23:20:54.901Z,101031.95
2018-08-06T23:23:23.710Z,101027.98
2018-08-06T23:25:52.757Z,101028.52
2018-08-06T23:28:21.586Z,101022.53
2018-08-06T23:30:50.480Z,101030.17
2018-08-06T23:33:19.493Z,101024.81
2018-08-06T23:35:48.448Z,101016.05
2018-08-06T23:38:17.251Z,101020.75
2018-08-06T23:40:46.018Z,101014.75
2018-08-06T23:43:15.108Z,101010.73
2018-08-06T23:45:43.941Z,101008.92
2018-08-06T23:48:13.011Z,101011.67
2018-08-06T23:50:41.761Z,101009.48
2018-08-06T23:53:10.816Z,101002.18
2018-08-06T23:55:40.090Z,101005.89
2018-08-06T23:58:09.783Z,101004.12
